This is the latest recevied weather packets stored in our database for station/object N3SBK. If no packets are shown the sender has not sent any weather packets the latest 10 day(s).
| Time | Temp. | Humidity | Pressure | Rain* | Wind** | Luminosity | Snow |
|---|---|---|---|---|---|---|---|
| 1787435184 | 25° C | 73% | 1002.7 hPa | 0 mm | - | 84 W/m² | - |
| 1787434880 | 25.56° C | 70% | 1002.6 hPa | 0 mm | - | 65 W/m² | - |
| 1787434576 | 26.11° C | 69% | 1002.7 hPa | 0 mm | - | 91 W/m² | - |
| 1787434272 | 26.11° C | 70% | 1002.6 hPa | 0 mm | - | 260 W/m² | - |
| 1787433967 | 25.56° C | 70% | 1002.7 hPa | 0 mm | - | 252 W/m² | - |
| 1787433667 | 25° C | 69% | 1002.7 hPa | 0 mm | - | 296 W/m² | - |
| 1787433362 | 24.44° C | 72% | 1002.9 hPa | 0 mm | - | 297 W/m² | - |
| 1787433058 | 24.44° C | 73% | 1002.8 hPa | 0 mm | - | 110 W/m² | - |
| 1787432755 | 24.44° C | 71% | 1002.8 hPa | 0 mm | - | 126 W/m² | - |
| 1787432455 | 25° C | 73% | 1002.7 hPa | 0 mm | - | 127 W/m² | - |
| 1787432149 | 25° C | 72% | 1002.8 hPa | 0 mm | - | 65 W/m² | - |
| 1787431848 | 26.11° C | 69% | 1003 hPa | 0 mm | - | 10 W/m² | - |
| 1787431544 | 26.67° C | 66% | 1003.3 hPa | 0 mm | - | 20 W/m² | - |
| 1787431240 | 26.67° C | 69% | 1003.4 hPa | 0 mm | - | 75 W/m² | - |
| 1787430936 | 25.56° C | 70% | 1003.3 hPa | 0 mm | - | 402 W/m² | - |
| 1787430632 | 25.56° C | 72% | 1003.4 hPa | 0 mm | - | 422 W/m² | - |
| 1787430329 | 26.11° C | 70% | 1003.4 hPa | 0 mm | - | 85 W/m² | - |
| 1787430025 | 27.22° C | 66% | 1003.4 hPa | 0 mm | - | 60 W/m² | - |
| 1787429720 | 27.78° C | 63% | 1003.5 hPa | 0 mm | - | 57 W/m² | - |
| 1787429420 | 28.33° C | 60% | 1003.4 hPa | 0 mm | - | 104 W/m² | - |
| 1787429117 | 28.89° C | 58% | 1003.3 hPa | 0 mm | - | 103 W/m² | - |
| 1787428812 | 28.89° C | 56% | 1003.4 hPa | 0 mm | - | 411 W/m² | - |
| 1787428508 | 28.89° C | 58% | 1003.4 hPa | 0 mm | - | 552 W/m² | - |
| 1787428208 | 29.44° C | 58% | 1003.4 hPa | 0 mm | - | 552 W/m² | - |
| 1787427902 | 29.44° C | 59% | 1003.5 hPa | 0 mm | - | 537 W/m² | - |
* Rain latest hour (hover to see other rain measurements)
** Current wind speed in m/s (hover to see current wind gust speed)